Iron River, Wisconsin
Current Conditions -  °F | °C
As of 10:53 PM on Saturday 22 Nov 2014 (Local Time) from KASX Reporting Station
Overcast Overcast  
Wind Chill: 30°   Ceiling: 800
Heat Index: 35°   Visibility: 10mi
Dew Point: 33°   Wind: 6mph
Humidity: 92%   Direction: 170°S
Pressure: 29.62"   Gusts: NA
Location:  46.56°N, 91.41°W
Report Text: KASX 230453Z AUTO 17005KT 10SM OVC008 02/01 A2962 RMK AO2 SLP038 T00170006
Loading
Personal Weather Stations






























Interactive Weather Map New forecast layout! Learn more

10-Day Weather Forecast

Advertisements
Track Severe Weather on mobile